Seville, OH

2:53 PM EDT on October 01, 2014 (GMT -0400)
KOHSEVIL1 | Change Station
CLOSE
Current Station
Personal Weather Station
Location: Seville, OH
Elevation: 997 ft
Nearby Weather Stations

Elev 997 ft 41.01 °N, 81.86 °W | Updated 4 seconds ago

Overcast
Overcast
66.7 °F
Feels Like 66.7 °F
N
0.0
Wind Variable Wind from North
Gusts 7.0 mph

Today
High -- | Low -- °F
--% Chance of Precip.
Yesterday
High -- | Low -- °F
Precip. -- in
7:24 AM 7:09 PM
Waxing Crescent, 50% visible
Pressure 30.06 in
Visibility 8.0 miles
Clouds Overcast 2200 ft
Dew Point 61 °F
Humidity 81%
Rainfall 0.00 in
Snow Depth Not available.
UV 2 out of 12
Pollen 1.40 out of 12
Ozone Unhealthy for Sensitive Groups
PM2.5 Good
Flu Activity Not available.
METAR KBJJ 011756Z AUTO 15005KT 8SM OVC022 18/13 A3005 RMK AO2 SLP177 T01830128 10183 20133 58005 TSNO

More Conditions Fewer Conditions

Pressure 30.06 in
Visibility 8.0 miles
Clouds Overcast 2200 ft
Dew Point 61 °F
Humidity 81%
Rainfall 0.00 in
Snow Depth Not available.
UV 2 out of 12
Pollen 1.40 out of 12
Ozone Unhealthy for Sensitive Groups
PM2.5 Good
Flu Activity Not available.
METAR KBJJ 011756Z AUTO 15005KT 8SM OVC022 18/13 A3005 RMK AO2 SLP177 T01830128 10183 20133 58005 TSNO

More Conditions Fewer Conditions

10-Day Weather Forecast

Almanac

Astronomy

Oct. 01, 2014 Rise Set
Actual Time 7:24 AM EDT 7:09 PM EDT
Civil Twilight 6:56 AM EDT 7:36 PM EDT
Nautical Twilight 6:24 AM EDT 8:08 PM EDT
Astronomical Twilight 5:52 AM EDT 8:40 PM EDT
Moon 2:25 PM EDT No Moon Set
Length of Visible Light 12h 40m
Length of Day
11h 45m
Tomorrow will be 2m 42s shorter.
Waxing Crescent, 50% of the Moon is Illuminated
Today
Waxing Crescent
Oct 1
First Quarter
Oct 8
Full
Oct 15
Last Quarter
Oct 23
New

Today's Extremes

State Highs State Lows

Community

WunderPhotos

Upload Photos

1,758,010 photos uploaded!

WunderBlogs® & News

By Dr. Jeff Masters
Director of Meteorology, Weather Underground
By Kari Strenfel
Meteorologist, Weather Underground
By Christopher C. Burt
Weather Historian, Weather Underground
October 1, 2014
October 1, 2014
October 1, 2014

Nearby

Air Quality

  Air Quality AQ Index Pollutant
Yesterday Good
OZONE
Yesterday Good
PM10
Current Unhealthy for Sensitive Groups
OZONE
Current Good
PM2.5
Wednesday Moderate
PM2.5
Wednesday Good
OZONE
Thursday Moderate
PM2.5
Thursday Good
OZONE

Snow Depth

Station Depth Elevation
No new snow has been reported.

Earthquake Activity

City Distance Mag. Time & Date
No recent earthquake activity has been reported nearby.
Minimum magnitude displayed is 2.5.

Coastal Water Temperatures

Place Temperature
No Stations Reporting

Nearby Weather Stations